createdAt,value
2023-02-03T00:02:21.260Z,92.40
2023-02-03T00:04:47.657Z,92.40
2023-02-03T00:07:14.045Z,92.30
2023-02-03T00:09:40.422Z,92.30
2023-02-03T00:12:06.920Z,92.30
2023-02-03T00:14:33.306Z,92.30
2023-02-03T00:16:59.694Z,92.30
2023-02-03T00:19:26.067Z,92.30
2023-02-03T00:21:52.471Z,92.30
2023-02-03T00:24:18.887Z,92.30
2023-02-03T00:26:45.277Z,92.30
2023-02-03T00:29:11.679Z,92.30
2023-02-03T00:31:38.186Z,92.30
2023-02-03T00:34:04.677Z,92.20
2023-02-03T00:36:31.078Z,92.20
2023-02-03T00:38:57.490Z,92.20
2023-02-03T00:41:23.883Z,92.20
2023-02-03T00:43:50.664Z,92.20
2023-02-03T00:46:17.107Z,92.10
2023-02-03T00:48:43.567Z,92.10
2023-02-03T00:51:09.995Z,92.10
2023-02-03T00:53:36.365Z,92.10
2023-02-03T00:56:02.767Z,92.00
2023-02-03T00:58:29.124Z,92.00
2023-02-03T01:00:55.562Z,92.00
2023-02-03T01:03:22.059Z,91.90
2023-02-03T01:05:48.462Z,91.90
2023-02-03T01:08:14.849Z,91.90
2023-02-03T01:10:41.391Z,91.80
2023-02-03T01:13:07.834Z,91.80
2023-02-03T01:15:34.239Z,91.80
2023-02-03T01:18:00.668Z,91.80
2023-02-03T01:20:27.253Z,91.70
2023-02-03T01:22:53.820Z,91.70
2023-02-03T01:25:20.453Z,91.70
2023-02-03T01:27:46.874Z,91.70
2023-02-03T01:30:13.254Z,91.60
2023-02-03T01:32:39.662Z,91.60
2023-02-03T01:35:06.053Z,91.60
2023-02-03T01:37:32.437Z,91.60
2023-02-03T01:39:58.811Z,91.60
2023-02-03T01:42:25.193Z,91.60
2023-02-03T01:44:51.612Z,91.60
2023-02-03T01:47:17.993Z,91.60
2023-02-03T01:49:44.400Z,91.60
2023-02-03T01:52:10.790Z,91.50
2023-02-03T01:54:37.167Z,91.50
2023-02-03T01:57:03.571Z,91.50
2023-02-03T01:59:29.959Z,91.50
2023-02-03T02:01:56.340Z,91.50
2023-02-03T02:04:22.755Z,91.50
2023-02-03T02:06:49.145Z,91.50
2023-02-03T02:09:15.534Z,91.50
2023-02-03T02:11:41.946Z,91.50
2023-02-03T02:14:08.337Z,91.40
2023-02-03T02:16:34.724Z,91.40
2023-02-03T02:19:01.127Z,91.30
2023-02-03T02:21:27.523Z,91.30
2023-02-03T02:23:53.905Z,91.20
2023-02-03T02:26:20.294Z,91.20
2023-02-03T02:28:46.691Z,91.20
2023-02-03T02:31:13.237Z,91.10
2023-02-03T02:33:39.660Z,91.10
2023-02-03T02:36:06.053Z,91.10
2023-02-03T02:38:32.420Z,91.10
2023-02-03T02:40:58.822Z,91.00
2023-02-03T02:43:25.209Z,91.00
2023-02-03T02:45:51.589Z,90.90
2023-02-03T02:48:17.988Z,90.90
2023-02-03T02:50:44.385Z,90.80
2023-02-03T02:53:10.781Z,90.90
2023-02-03T02:55:37.169Z,90.80
2023-02-03T02:58:03.547Z,90.80
2023-02-03T03:00:29.917Z,90.80
2023-02-03T03:02:56.301Z,90.80
2023-02-03T03:05:22.702Z,90.70
2023-02-03T03:07:49.122Z,90.70
2023-02-03T03:10:15.510Z,90.70
2023-02-03T03:12:41.890Z,90.70
2023-02-03T03:15:08.278Z,90.70
2023-02-03T03:17:34.675Z,90.60
2023-02-03T03:20:01.074Z,90.60
2023-02-03T03:22:27.455Z,90.60
2023-02-03T03:24:53.878Z,90.60
2023-02-03T03:27:20.447Z,90.60
2023-02-03T03:29:46.844Z,90.50
2023-02-03T03:32:13.257Z,90.50
2023-02-03T03:34:39.647Z,90.40
2023-02-03T03:37:06.016Z,90.40
2023-02-03T03:39:32.399Z,90.40
2023-02-03T03:41:58.780Z,90.40
2023-02-03T03:44:25.158Z,90.30
2023-02-03T03:46:51.558Z,90.30
2023-02-03T03:49:17.952Z,90.30
2023-02-03T03:51:44.339Z,90.30
2023-02-03T03:54:10.721Z,90.30
2023-02-03T03:56:37.088Z,90.20
2023-02-03T03:59:03.478Z,90.20
2023-02-03T04:01:29.969Z,90.20
2023-02-03T04:03:56.419Z,90.10
2023-02-03T04:06:22.793Z,90.10
2023-02-03T04:08:49.226Z,90.10
2023-02-03T04:11:15.641Z,90.10
2023-02-03T04:13:42.395Z,90.10
2023-02-03T04:16:08.829Z,90.10
2023-02-03T04:18:35.263Z,90.10
2023-02-03T04:21:01.657Z,90.00
2023-02-03T04:23:28.028Z,90.00
2023-02-03T04:25:54.418Z,90.00
2023-02-03T04:28:20.791Z,89.90
2023-02-03T04:30:47.209Z,89.80
2023-02-03T04:33:13.580Z,89.70
2023-02-03T04:35:39.982Z,89.80
2023-02-03T04:38:06.416Z,89.60
2023-02-03T04:40:34.930Z,89.70
2023-02-03T04:43:01.501Z,89.70
2023-02-03T04:45:27.972Z,89.70
2023-02-03T04:47:54.806Z,89.70
2023-02-03T04:50:21.284Z,89.60
2023-02-03T04:52:47.672Z,89.70
2023-02-03T04:55:14.073Z,89.60
2023-02-03T04:57:40.436Z,89.60
2023-02-03T05:00:06.946Z,89.50
2023-02-03T05:02:33.317Z,89.40
2023-02-03T05:04:59.724Z,89.50
2023-02-03T05:07:26.109Z,89.40
2023-02-03T05:09:52.507Z,89.30
2023-02-03T05:12:18.900Z,89.30
2023-02-03T05:14:45.268Z,89.10
2023-02-03T05:17:11.692Z,89.00
2023-02-03T05:19:38.110Z,88.90
2023-02-03T05:22:04.493Z,88.90
2023-02-03T05:24:30.877Z,88.90
2023-02-03T05:26:57.253Z,88.70
2023-02-03T05:29:23.655Z,88.60
2023-02-03T05:31:50.101Z,88.70
2023-02-03T05:34:16.534Z,88.50
2023-02-03T05:36:42.926Z,88.40
2023-02-03T05:39:09.303Z,88.40
2023-02-03T05:41:35.686Z,88.30
2023-02-03T05:44:02.056Z,88.30
2023-02-03T05:46:28.464Z,88.30
2023-02-03T05:48:54.850Z,88.20
2023-02-03T05:51:21.249Z,88.10
2023-02-03T05:53:47.679Z,88.10
2023-02-03T05:56:14.082Z,87.90
2023-02-03T05:58:40.480Z,87.80
2023-02-03T06:01:07.047Z,87.60
2023-02-03T06:03:33.510Z,87.60
2023-02-03T06:05:59.947Z,87.70
2023-02-03T06:08:26.361Z,87.70
2023-02-03T06:10:52.742Z,87.60
2023-02-03T06:13:19.141Z,87.60
2023-02-03T06:15:45.543Z,87.50
2023-02-03T06:18:11.965Z,87.40
2023-02-03T06:20:38.336Z,87.50
2023-02-03T06:23:04.776Z,87.40
2023-02-03T06:25:31.170Z,87.30
2023-02-03T06:27:57.621Z,87.30
2023-02-03T06:30:24.041Z,87.90
2023-02-03T06:32:50.883Z,87.40
2023-02-03T06:35:17.285Z,87.50
2023-02-03T06:37:43.661Z,87.50
2023-02-03T06:40:10.048Z,87.40
2023-02-03T06:45:11.764Z,87.40
2023-02-03T06:47:38.149Z,87.40
2023-02-03T06:50:04.525Z,87.30
2023-02-03T06:52:30.926Z,87.20
2023-02-03T06:54:57.312Z,87.20
2023-02-03T06:57:23.693Z,87.20
2023-02-03T06:59:50.079Z,87.30
2023-02-03T07:02:16.557Z,87.30
2023-02-03T07:04:43.068Z,87.10
2023-02-03T07:07:09.453Z,87.10
2023-02-03T07:09:35.838Z,87.10
2023-02-03T07:12:02.243Z,87.20
2023-02-03T07:14:28.636Z,87.30
2023-02-03T07:16:55.023Z,87.80
2023-02-03T07:19:21.421Z,87.30
2023-02-03T07:21:47.804Z,87.30
2023-02-03T07:24:14.212Z,87.50
2023-02-03T07:26:40.591Z,87.40
2023-02-03T07:29:06.984Z,87.50
2023-02-03T07:31:33.520Z,87.50
2023-02-03T07:33:59.962Z,87.50
2023-02-03T07:36:26.351Z,87.50
2023-02-03T07:38:52.731Z,87.50
2023-02-03T07:41:19.106Z,87.60
2023-02-03T07:43:45.649Z,87.60
2023-02-03T07:46:12.063Z,87.60
2023-02-03T07:48:38.473Z,87.60
2023-02-03T07:51:04.857Z,87.80
2023-02-03T07:53:31.239Z,87.60
2023-02-03T07:55:57.665Z,87.70
2023-02-03T07:58:24.031Z,87.70
2023-02-03T08:00:50.418Z,87.70
2023-02-03T08:03:16.793Z,87.70
2023-02-03T08:05:43.173Z,87.60
2023-02-03T08:08:09.545Z,87.60
2023-02-03T08:10:35.911Z,87.60
2023-02-03T08:13:02.285Z,87.60
2023-02-03T08:15:28.686Z,87.60
2023-02-03T08:17:55.072Z,87.50
2023-02-03T08:20:21.454Z,87.50
2023-02-03T08:22:47.847Z,87.50
2023-02-03T08:25:14.433Z,87.70
2023-02-03T08:27:40.848Z,87.60
2023-02-03T08:30:07.246Z,87.50
2023-02-03T08:32:33.685Z,87.40
2023-02-03T08:35:00.079Z,87.50
2023-02-03T08:37:26.502Z,87.40
2023-02-03T08:39:52.929Z,87.50
2023-02-03T08:42:19.379Z,87.40
2023-02-03T08:44:45.871Z,87.40
2023-02-03T08:47:12.251Z,87.40
2023-02-03T08:49:38.672Z,87.40
2023-02-03T08:52:05.042Z,87.50
2023-02-03T08:54:31.422Z,87.50
2023-02-03T08:56:57.860Z,87.40
2023-02-03T08:59:24.254Z,87.40
2023-02-03T09:01:50.698Z,87.50
2023-02-03T09:04:17.125Z,87.40
2023-02-03T09:06:43.562Z,87.50
2023-02-03T09:09:10.005Z,87.60
2023-02-03T09:11:36.396Z,87.70
2023-02-03T09:14:02.808Z,87.60
2023-02-03T09:16:29.251Z,87.70
2023-02-03T09:18:55.708Z,87.80
2023-02-03T09:21:33.797Z,87.80
2023-02-03T09:24:05.859Z,87.80
2023-02-03T09:26:32.321Z,87.90
2023-02-03T09:28:58.763Z,87.80
2023-02-03T09:31:25.240Z,87.90
2023-02-03T09:33:51.712Z,88.00
2023-02-03T09:36:18.099Z,88.00
2023-02-03T09:38:44.632Z,88.10
2023-02-03T09:41:12.185Z,88.10
2023-02-03T09:43:38.701Z,88.00
2023-02-03T09:46:05.204Z,88.00
2023-02-03T09:48:31.641Z,88.00
2023-02-03T09:50:58.069Z,88.00
2023-02-03T09:53:24.483Z,88.00
2023-02-03T09:55:50.909Z,88.10
2023-02-03T09:58:17.281Z,88.00
2023-02-03T10:00:43.753Z,87.90
2023-02-03T10:03:10.125Z,87.90
2023-02-03T10:05:36.499Z,87.80
2023-02-03T10:08:02.890Z,87.80
2023-02-03T10:10:29.642Z,87.90
2023-02-03T10:12:56.200Z,87.90
2023-02-03T10:15:22.607Z,87.90
2023-02-03T10:17:49.047Z,87.90
2023-02-03T10:20:15.435Z,87.80
2023-02-03T10:22:41.879Z,87.80
2023-02-03T10:25:08.296Z,87.80
2023-02-03T10:27:34.753Z,87.90
2023-02-03T10:30:01.160Z,87.90
2023-02-03T10:32:27.607Z,87.90
2023-02-03T10:34:54.035Z,87.90
2023-02-03T10:37:20.475Z,87.80
2023-02-03T10:39:46.879Z,87.80
2023-02-03T10:42:13.260Z,88.00
2023-02-03T10:44:39.645Z,88.00
2023-02-03T10:47:06.009Z,88.00
2023-02-03T10:49:32.451Z,88.00
2023-02-03T10:51:58.906Z,88.10
2023-02-03T10:54:25.344Z,88.60
2023-02-03T10:56:51.799Z,89.30
2023-02-03T10:59:18.260Z,89.90
2023-02-03T11:01:44.918Z,90.20
2023-02-03T11:04:11.336Z,90.30
2023-02-03T11:06:37.733Z,90.40
2023-02-03T11:09:04.104Z,90.40
2023-02-03T11:11:30.534Z,90.40
2023-02-03T11:13:56.952Z,90.40
2023-02-03T11:16:23.449Z,90.30
2023-02-03T11:18:49.951Z,90.20
2023-02-03T11:21:16.417Z,90.30
2023-02-03T11:23:42.834Z,90.20
2023-02-03T11:26:09.200Z,90.20
2023-02-03T11:28:35.593Z,90.10
2023-02-03T11:31:02.063Z,90.10
2023-02-03T11:33:28.614Z,90.10
2023-02-03T11:35:55.053Z,90.10
2023-02-03T11:38:21.497Z,90.10
2023-02-03T11:40:47.874Z,90.00
2023-02-03T11:43:14.441Z,90.00
2023-02-03T11:45:40.845Z,90.00
2023-02-03T11:48:07.215Z,90.00
2023-02-03T11:50:33.597Z,90.00
2023-02-03T11:52:59.982Z,90.20
2023-02-03T11:55:26.369Z,90.30
2023-02-03T11:57:52.804Z,90.40
2023-02-03T12:00:19.199Z,90.50
2023-02-03T12:02:45.761Z,90.50
2023-02-03T12:05:12.167Z,90.60
2023-02-03T12:07:38.614Z,90.60
2023-02-03T12:10:04.995Z,90.50
2023-02-03T12:12:31.411Z,90.60
2023-02-03T12:14:57.792Z,90.70
2023-02-03T12:17:24.203Z,90.70
2023-02-03T12:19:50.591Z,90.60
2023-02-03T12:22:16.959Z,90.40
2023-02-03T12:24:43.383Z,90.40
2023-02-03T12:27:09.770Z,90.30
2023-02-03T12:29:36.148Z,90.20
2023-02-03T12:32:02.602Z,89.60
2023-02-03T12:34:29.048Z,89.20
2023-02-03T12:36:55.423Z,89.20
2023-02-03T12:39:21.863Z,88.90
2023-02-03T12:41:48.294Z,88.70
2023-02-03T12:44:14.823Z,88.30
2023-02-03T12:46:41.208Z,87.30
2023-02-03T12:49:07.602Z,87.00
2023-02-03T12:51:34.008Z,87.10
2023-02-03T12:54:00.429Z,86.60
2023-02-03T12:56:26.819Z,86.50
2023-02-03T12:58:53.246Z,86.10
2023-02-03T13:01:19.690Z,86.00
2023-02-03T13:03:46.103Z,86.00
2023-02-03T13:06:12.537Z,85.70
2023-02-03T13:08:38.909Z,85.70
2023-02-03T13:11:05.342Z,85.60
2023-02-03T13:13:31.748Z,85.80
2023-02-03T13:15:58.129Z,85.60
2023-02-03T13:18:24.529Z,85.30
2023-02-03T13:20:50.966Z,85.20
2023-02-03T13:23:17.340Z,85.40
2023-02-03T13:25:43.723Z,85.30
2023-02-03T13:28:10.225Z,85.20
2023-02-03T13:30:36.709Z,85.30
2023-02-03T13:33:03.113Z,84.90
2023-02-03T13:35:34.191Z,84.40
2023-02-03T13:38:01.143Z,84.40
2023-02-03T13:40:28.178Z,84.20
2023-02-03T13:42:54.810Z,84.40
2023-02-03T13:45:21.196Z,83.90
2023-02-03T13:47:47.631Z,84.10
2023-02-03T13:50:14.026Z,84.00
2023-02-03T13:52:40.468Z,84.00
2023-02-03T13:55:06.910Z,84.00
2023-02-03T13:57:33.341Z,83.90
2023-02-03T13:59:59.796Z,83.70
2023-02-03T14:02:26.240Z,83.80
2023-02-03T14:04:54.079Z,83.30
2023-02-03T14:07:20.864Z,83.40
2023-02-03T14:09:47.364Z,83.50
2023-02-03T14:12:13.811Z,83.20
2023-02-03T14:14:40.195Z,83.30
2023-02-03T14:17:06.658Z,83.60
2023-02-03T14:19:33.144Z,83.60
2023-02-03T14:21:59.583Z,83.60
2023-02-03T14:24:26.097Z,83.40
2023-02-03T14:26:52.481Z,82.80
2023-02-03T14:29:18.921Z,82.90
2023-02-03T14:31:45.651Z,83.00
2023-02-03T14:34:12.120Z,83.10
2023-02-03T14:36:38.569Z,82.80
2023-02-03T14:39:04.969Z,82.80
2023-02-03T14:41:31.406Z,82.30
2023-02-03T14:43:58.006Z,82.10
2023-02-03T14:46:24.591Z,80.50
2023-02-03T14:48:51.072Z,80.80
2023-02-03T14:51:17.522Z,80.70
2023-02-03T14:53:43.960Z,80.00
2023-02-03T14:56:10.349Z,80.60
2023-02-03T14:58:36.742Z,80.90
2023-02-03T15:01:03.190Z,81.40
2023-02-03T15:03:29.643Z,80.90
2023-02-03T15:05:56.081Z,80.30
2023-02-03T15:08:22.514Z,80.20
2023-02-03T15:10:48.937Z,79.90
2023-02-03T15:13:15.511Z,79.50
2023-02-03T15:15:41.880Z,79.50
2023-02-03T15:18:08.333Z,79.20
2023-02-03T15:20:34.809Z,79.40
2023-02-03T15:23:01.214Z,78.90
2023-02-03T15:25:27.870Z,78.50
2023-02-03T15:27:54.465Z,78.50
2023-02-03T15:30:20.918Z,79.00
2023-02-03T15:32:47.363Z,79.40
2023-02-03T15:35:13.803Z,79.00
2023-02-03T15:37:40.169Z,78.50
2023-02-03T15:40:06.701Z,77.90
2023-02-03T15:42:33.210Z,78.00
2023-02-03T15:44:59.659Z,78.30
2023-02-03T15:47:26.145Z,78.40
2023-02-03T15:49:52.583Z,77.90
2023-02-03T15:52:19.013Z,77.80
2023-02-03T15:54:45.510Z,78.10
2023-02-03T15:57:11.963Z,78.20
2023-02-03T15:59:38.344Z,77.90
2023-02-03T16:02:04.920Z,78.00
2023-02-03T16:04:31.422Z,78.30
2023-02-03T16:06:57.829Z,78.10
2023-02-03T16:09:24.245Z,78.10
2023-02-03T16:11:50.624Z,78.30
2023-02-03T16:14:16.988Z,78.50
2023-02-03T16:16:55.191Z,78.70
2023-02-03T16:19:29.059Z,78.80
2023-02-03T16:21:55.491Z,78.80
2023-02-03T16:24:21.893Z,78.90
2023-02-03T16:26:48.313Z,78.90
2023-02-03T16:29:14.857Z,79.10
2023-02-03T16:31:41.308Z,79.20
2023-02-03T16:34:07.692Z,79.40
2023-02-03T16:36:34.077Z,79.60
2023-02-03T16:39:00.507Z,79.80
2023-02-03T16:41:26.941Z,80.00
2023-02-03T16:43:53.396Z,80.10
2023-02-03T16:46:19.891Z,80.20
2023-02-03T16:48:46.460Z,80.40
2023-02-03T16:51:12.900Z,80.50
2023-02-03T16:53:39.318Z,80.60
2023-02-03T16:56:05.716Z,80.70
2023-02-03T16:58:32.143Z,80.80
2023-02-03T17:00:58.685Z,80.90
2023-02-03T17:03:25.105Z,81.10
2023-02-03T17:05:51.477Z,81.20
2023-02-03T17:08:17.925Z,81.50
2023-02-03T17:10:44.514Z,81.60
2023-02-03T17:13:10.948Z,81.80
2023-02-03T17:15:37.338Z,82.00
2023-02-03T17:18:03.723Z,82.10
2023-02-03T17:20:30.182Z,82.30
2023-02-03T17:22:56.637Z,82.40
2023-02-03T17:25:23.024Z,82.60
2023-02-03T17:27:49.491Z,82.80
2023-02-03T17:30:15.930Z,83.10
2023-02-03T17:32:42.390Z,83.40
2023-02-03T17:35:08.795Z,83.60
2023-02-03T17:37:35.220Z,83.90
2023-02-03T17:53:42.289Z,84.70
2023-02-03T17:56:08.727Z,85.00
2023-02-03T17:58:35.113Z,85.10
2023-02-03T18:01:01.504Z,85.30
2023-02-03T18:03:27.889Z,85.50
2023-02-03T18:05:54.288Z,85.60
2023-02-03T18:08:25.152Z,85.80
2023-02-03T18:10:51.849Z,85.80
2023-02-03T18:13:18.353Z,85.90
2023-02-03T18:15:44.937Z,85.90
2023-02-03T18:18:11.365Z,85.80
2023-02-03T18:20:37.801Z,85.80
2023-02-03T18:23:04.235Z,85.90
2023-02-03T18:25:30.666Z,85.90
2023-02-03T18:27:57.146Z,85.90
2023-02-03T18:30:23.618Z,85.90
2023-02-03T18:32:50.058Z,85.90
2023-02-03T18:35:16.453Z,86.10
2023-02-03T18:37:42.836Z,86.10
2023-02-03T18:40:09.278Z,86.10
2023-02-03T18:42:35.673Z,86.20
2023-02-03T18:45:02.093Z,86.30
2023-02-03T18:47:28.501Z,86.30
2023-02-03T18:49:54.878Z,86.30
2023-02-03T18:52:21.278Z,86.30
2023-02-03T18:54:47.687Z,86.20
2023-02-03T18:57:14.063Z,86.10
2023-02-03T18:59:40.508Z,86.00
2023-02-03T19:02:06.933Z,85.90
2023-02-03T19:04:33.463Z,85.80
2023-02-03T19:06:59.921Z,85.70
2023-02-03T19:09:26.318Z,85.50
2023-02-03T19:11:52.718Z,85.30
2023-02-03T19:14:19.154Z,85.30
2023-02-03T19:16:45.624Z,85.20
2023-02-03T19:19:11.993Z,85.20
2023-02-03T19:21:38.427Z,85.10
2023-02-03T19:24:04.857Z,85.00
2023-02-03T19:26:31.294Z,85.20
2023-02-03T19:28:57.679Z,85.20
2023-02-03T19:31:24.158Z,85.20
2023-02-03T19:33:50.649Z,85.20
2023-02-03T19:36:17.099Z,85.30
2023-02-03T19:38:43.480Z,85.30
2023-02-03T19:41:09.939Z,85.30
2023-02-03T19:43:36.319Z,85.30
2023-02-03T19:46:02.781Z,85.40
2023-02-03T19:48:29.307Z,85.30
2023-02-03T19:50:55.720Z,85.10
2023-02-03T19:53:22.208Z,85.20
2023-02-03T19:55:48.688Z,85.30
2023-02-03T19:58:15.102Z,85.30
2023-02-03T20:00:41.846Z,85.40
2023-02-03T20:03:08.298Z,85.40
2023-02-03T20:05:34.744Z,85.40
2023-02-03T20:08:01.121Z,85.40
2023-02-03T20:10:27.628Z,85.40
2023-02-03T20:12:54.157Z,85.30
2023-02-03T20:15:20.615Z,85.30
2023-02-03T20:17:47.061Z,85.30
2023-02-03T20:20:13.480Z,85.30
2023-02-03T20:22:39.886Z,85.30
2023-02-03T20:25:06.312Z,85.30
2023-02-03T20:27:32.742Z,85.30
2023-02-03T20:29:59.368Z,85.30
2023-02-03T20:32:27.039Z,85.40
2023-02-03T20:34:53.489Z,85.40
2023-02-03T20:37:20.159Z,85.40
2023-02-03T20:39:46.608Z,85.40
2023-02-03T20:42:13.030Z,85.50
2023-02-03T20:44:39.702Z,85.60
2023-02-03T20:47:06.586Z,85.70
2023-02-03T20:49:32.943Z,85.80
2023-02-03T20:51:59.575Z,85.80
2023-02-03T20:54:26.017Z,85.80
2023-02-03T20:56:52.400Z,85.90
2023-02-03T20:59:18.849Z,86.00
2023-02-03T21:01:45.294Z,86.00
2023-02-03T21:04:12.049Z,86.00
2023-02-03T21:06:38.456Z,86.00
2023-02-03T21:09:04.890Z,86.10
2023-02-03T21:11:31.289Z,86.10
2023-02-03T21:13:57.957Z,86.10
2023-02-03T21:16:24.469Z,86.20
2023-02-03T21:18:50.951Z,86.30
2023-02-03T21:21:17.409Z,86.30
2023-02-03T21:23:45.590Z,86.30
2023-02-03T21:26:13.337Z,86.30
2023-02-03T21:28:39.731Z,86.30
2023-02-03T21:31:06.177Z,86.30
2023-02-03T21:33:32.644Z,86.20
2023-02-03T21:35:59.104Z,86.20
2023-02-03T21:38:25.541Z,86.20
2023-02-03T21:40:51.915Z,86.20
2023-02-03T21:43:18.654Z,86.20
2023-02-03T21:45:45.146Z,86.30
2023-02-03T21:48:11.623Z,86.20
2023-02-03T21:50:38.041Z,86.30
2023-02-03T21:53:04.433Z,86.30
2023-02-03T21:55:30.845Z,86.20
2023-02-03T21:57:57.220Z,86.20
2023-02-03T22:00:23.645Z,86.30
2023-02-03T22:02:50.123Z,86.30
2023-02-03T22:05:16.612Z,86.30
2023-02-03T22:07:43.055Z,86.30
2023-02-03T22:10:09.506Z,86.20
2023-02-03T22:12:35.892Z,86.20
2023-02-03T22:15:02.291Z,86.20
2023-02-03T22:17:28.762Z,86.20
2023-02-03T22:19:55.149Z,86.20
2023-02-03T22:22:21.577Z,86.30
2023-02-03T22:24:47.996Z,86.30
2023-02-03T22:27:14.441Z,86.40
2023-02-03T22:29:41.070Z,86.30
2023-02-03T22:32:07.468Z,86.40
2023-02-03T22:34:33.851Z,86.50
2023-02-03T22:37:00.409Z,86.50
2023-02-03T22:39:26.840Z,86.50
2023-02-03T22:41:53.287Z,86.50
2023-02-03T22:44:19.729Z,86.50
2023-02-03T22:46:46.160Z,86.50
2023-02-03T22:49:12.609Z,86.50
2023-02-03T22:51:39.043Z,86.50
2023-02-03T22:54:05.497Z,86.50
2023-02-03T22:56:31.878Z,86.50
2023-02-03T22:58:58.278Z,86.50
2023-02-03T23:01:24.739Z,86.50
2023-02-03T23:03:51.153Z,86.50
2023-02-03T23:06:17.585Z,86.60
2023-02-03T23:08:44.046Z,86.70
2023-02-03T23:11:10.568Z,86.70
2023-02-03T23:13:37.036Z,86.80
2023-02-03T23:16:03.553Z,86.80
2023-02-03T23:18:30.033Z,86.90
2023-02-03T23:20:56.484Z,87.00
2023-02-03T23:23:22.869Z,87.10
2023-02-03T23:25:49.309Z,87.20
2023-02-03T23:28:15.827Z,87.20
2023-02-03T23:30:42.378Z,87.20
2023-02-03T23:33:08.914Z,87.30
2023-02-03T23:35:35.336Z,87.30
2023-02-03T23:38:01.774Z,87.40
2023-02-03T23:40:28.826Z,87.50
2023-02-03T23:42:55.552Z,87.50
2023-02-03T23:45:21.935Z,87.50
2023-02-03T23:47:48.312Z,87.50
2023-02-03T23:50:15.021Z,87.40
2023-02-03T23:52:41.453Z,87.50
2023-02-03T23:55:07.894Z,87.50
2023-02-03T23:57:34.337Z,87.50
